createdAt,value
2018-07-28T00:00:04.508Z,85.80
2018-07-28T00:02:32.947Z,86.20
2018-07-28T00:05:01.370Z,86.70
2018-07-28T00:07:29.870Z,87.00
2018-07-28T00:09:58.255Z,87.40
2018-07-28T00:12:26.650Z,87.80
2018-07-28T00:14:55.844Z,88.50
2018-07-28T00:17:25.062Z,88.50
2018-07-28T00:19:54.224Z,88.10
2018-07-28T00:22:22.610Z,88.00
2018-07-28T00:24:50.992Z,88.80
2018-07-28T00:27:20.139Z,88.80
2018-07-28T00:29:48.563Z,88.60
2018-07-28T00:32:17.017Z,88.90
2018-07-28T00:34:45.415Z,89.00
2018-07-28T00:37:13.999Z,89.30
2018-07-28T00:39:42.383Z,89.10
2018-07-28T00:42:10.755Z,89.40
2018-07-28T00:44:39.247Z,89.40
2018-07-28T00:47:07.733Z,89.60
2018-07-28T00:49:36.179Z,89.80
2018-07-28T00:52:04.585Z,90.00
2018-07-28T00:54:32.979Z,90.00
2018-07-28T00:57:01.522Z,90.00
2018-07-28T00:59:29.898Z,90.00
2018-07-28T01:01:58.565Z,90.00
2018-07-28T01:04:26.985Z,90.00
2018-07-28T01:06:55.343Z,90.10
2018-07-28T01:09:23.821Z,90.20
2018-07-28T01:11:52.226Z,89.90
2018-07-28T01:14:20.603Z,90.00
2018-07-28T01:16:48.990Z,90.40
2018-07-28T01:19:17.430Z,90.50
2018-07-28T01:21:45.837Z,90.70
2018-07-28T01:24:14.291Z,90.70
2018-07-28T01:26:42.666Z,90.70
2018-07-28T01:29:11.052Z,90.80
2018-07-28T01:31:39.425Z,91.00
2018-07-28T01:34:07.810Z,91.10
2018-07-28T01:36:36.173Z,91.10
2018-07-28T01:39:04.762Z,91.30
2018-07-28T01:41:33.182Z,91.40
2018-07-28T01:44:01.538Z,91.40
2018-07-28T01:46:29.944Z,91.50
2018-07-28T01:48:58.334Z,91.50
2018-07-28T01:51:26.758Z,91.50
2018-07-28T01:53:55.138Z,91.60
2018-07-28T01:56:23.620Z,91.60
2018-07-28T01:58:52.034Z,91.70
2018-07-28T02:01:20.492Z,91.80
2018-07-28T02:03:48.927Z,91.90
2018-07-28T02:06:17.288Z,92.00
2018-07-28T02:08:45.711Z,92.00
2018-07-28T02:11:14.100Z,92.20
2018-07-28T02:13:42.518Z,92.30
2018-07-28T02:16:10.871Z,92.50
2018-07-28T02:18:39.292Z,92.60
2018-07-28T02:21:07.807Z,92.70
2018-07-28T02:23:36.196Z,92.80
2018-07-28T02:26:04.579Z,92.90
2018-07-28T02:28:32.991Z,93.00
2018-07-28T02:31:01.371Z,93.20
2018-07-28T02:33:30.036Z,93.40
2018-07-28T02:35:58.419Z,92.70
2018-07-28T02:38:26.919Z,93.60
2018-07-28T02:40:55.272Z,93.70
2018-07-28T02:43:23.781Z,93.70
2018-07-28T02:45:52.161Z,93.70
2018-07-28T02:48:20.545Z,93.80
2018-07-28T02:50:48.947Z,93.90
2018-07-28T02:53:17.350Z,93.90
2018-07-28T02:55:45.771Z,93.70
2018-07-28T02:58:14.157Z,94.10
2018-07-28T03:00:42.608Z,94.30
2018-07-28T03:03:11.007Z,94.40
2018-07-28T03:05:39.393Z,94.30
2018-07-28T03:08:07.749Z,94.40
2018-07-28T03:10:36.149Z,94.60
2018-07-28T03:13:04.624Z,94.90
2018-07-28T03:15:33.188Z,95.00
2018-07-28T03:18:02.321Z,95.20
2018-07-28T03:20:30.743Z,95.20
2018-07-28T03:22:59.150Z,95.30
2018-07-28T03:25:28.373Z,95.50
2018-07-28T03:27:56.746Z,95.50
2018-07-28T03:30:25.117Z,95.60
2018-07-28T03:32:53.569Z,95.80
2018-07-28T03:35:21.979Z,95.70
2018-07-28T03:37:50.393Z,95.80
2018-07-28T03:40:18.875Z,96.10
2018-07-28T03:42:47.331Z,96.20
2018-07-28T03:45:15.812Z,96.40
2018-07-28T03:47:44.329Z,96.60
2018-07-28T03:50:12.730Z,96.90
2018-07-28T03:52:41.165Z,97.10
2018-07-28T03:55:09.545Z,97.20
2018-07-28T03:57:37.924Z,97.20
2018-07-28T04:00:06.379Z,97.40
2018-07-28T04:02:34.830Z,98.10
2018-07-28T04:05:03.189Z,97.80
2018-07-28T04:07:31.623Z,97.90
2018-07-28T04:10:00.069Z,98.10
2018-07-28T04:12:28.443Z,98.40
2018-07-28T04:14:56.813Z,98.40
2018-07-28T04:17:25.205Z,98.60
2018-07-28T04:19:53.662Z,98.80
2018-07-28T04:22:22.065Z,99.00
2018-07-28T04:24:50.441Z,99.30
2018-07-28T04:27:18.798Z,99.30
2018-07-28T04:29:47.210Z,99.30
2018-07-28T04:32:15.619Z,99.30
2018-07-28T04:34:44.001Z,99.50
2018-07-28T04:37:12.537Z,99.60
2018-07-28T04:39:40.813Z,99.50
2018-07-28T04:42:09.187Z,99.50
2018-07-28T04:44:37.576Z,99.40
2018-07-28T04:47:06.058Z,99.60
2018-07-28T04:49:34.432Z,99.60
2018-07-28T04:52:02.829Z,99.70
2018-07-28T04:54:31.202Z,99.70
2018-07-28T04:57:00.335Z,99.60
2018-07-28T04:59:28.722Z,99.50
2018-07-28T05:01:57.156Z,99.20
2018-07-28T05:04:25.534Z,99.10
2018-07-28T05:06:54.000Z,99.10
2018-07-28T05:09:22.493Z,98.90
2018-07-28T05:11:50.870Z,98.70
2018-07-28T05:14:19.459Z,98.60
2018-07-28T05:16:47.829Z,98.20
2018-07-28T05:19:16.265Z,97.80
2018-07-28T05:21:44.710Z,97.50
2018-07-28T05:24:13.071Z,97.20
2018-07-28T05:26:41.445Z,96.70
2018-07-28T05:29:09.829Z,96.50
2018-07-28T05:31:39.028Z,96.50
2018-07-28T05:34:07.405Z,96.20
2018-07-28T05:36:35.827Z,96.30
2018-07-28T05:39:05.073Z,96.60
2018-07-28T05:41:34.190Z,96.60
2018-07-28T05:44:02.629Z,96.60
2018-07-28T05:46:31.039Z,96.40
2018-07-28T05:48:59.412Z,96.50
2018-07-28T05:51:27.775Z,97.00
2018-07-28T05:53:56.271Z,96.40
2018-07-28T05:56:24.698Z,96.60
2018-07-28T05:58:53.863Z,97.10
2018-07-28T06:01:22.279Z,96.80
2018-07-28T06:03:50.657Z,96.90
2018-07-28T06:06:19.788Z,97.00
2018-07-28T06:08:48.191Z,96.90
2018-07-28T06:11:16.581Z,97.00
2018-07-28T06:13:44.991Z,97.00
2018-07-28T06:16:14.147Z,97.30
2018-07-28T06:18:42.541Z,97.30
2018-07-28T06:21:10.935Z,97.30
2018-07-28T06:23:39.547Z,97.40
2018-07-28T06:26:08.681Z,97.40
2018-07-28T06:28:37.094Z,97.40
2018-07-28T06:31:05.502Z,97.60
2018-07-28T06:33:33.924Z,97.80
2018-07-28T06:36:02.315Z,97.80
2018-07-28T06:38:34.769Z,97.80
2018-07-28T06:41:03.227Z,97.80
2018-07-28T06:43:31.641Z,97.90
2018-07-28T06:46:00.713Z,97.80
2018-07-28T06:48:29.177Z,97.50
2018-07-28T06:50:57.602Z,97.20
2018-07-28T06:53:26.009Z,97.20
2018-07-28T06:55:54.389Z,97.10
2018-07-28T06:58:22.838Z,96.70
2018-07-28T07:00:51.223Z,96.80
2018-07-28T07:03:19.647Z,96.60
2018-07-28T07:05:48.788Z,96.40
2018-07-28T07:08:17.161Z,96.40
2018-07-28T07:10:45.603Z,96.20
2018-07-28T07:13:14.737Z,95.60
2018-07-28T07:15:43.259Z,95.50
2018-07-28T07:18:11.635Z,95.50
2018-07-28T07:20:40.038Z,95.30
2018-07-28T07:23:09.195Z,94.80
2018-07-28T07:25:38.475Z,94.40
2018-07-28T07:28:06.918Z,94.40
2018-07-28T07:30:36.041Z,94.60
2018-07-28T07:33:04.487Z,94.60
2018-07-28T07:35:33.629Z,94.00
2018-07-28T07:38:02.020Z,94.00
2018-07-28T07:40:30.709Z,93.80
2018-07-28T07:42:59.140Z,93.80
2018-07-28T07:45:27.509Z,93.40
2018-07-28T07:47:56.669Z,93.30
2018-07-28T07:50:25.100Z,93.30
2018-07-28T07:52:53.545Z,93.10
2018-07-28T07:55:21.967Z,93.00
2018-07-28T07:57:51.129Z,92.60
2018-07-28T08:00:19.491Z,92.60
2018-07-28T08:02:47.903Z,92.50
2018-07-28T08:05:17.261Z,92.40
2018-07-28T08:07:46.080Z,92.40
2018-07-28T08:10:14.471Z,92.20
2018-07-28T08:12:43.022Z,91.60
2018-07-28T08:15:11.425Z,91.20
2018-07-28T08:17:39.854Z,90.70
2018-07-28T08:20:10.169Z,90.40
2018-07-28T08:22:38.563Z,90.40
2018-07-28T08:25:07.826Z,90.40
2018-07-28T08:27:37.028Z,90.00
2018-07-28T08:30:05.396Z,90.00
2018-07-28T08:32:34.652Z,89.10
2018-07-28T08:35:03.028Z,88.70
2018-07-28T08:37:31.442Z,88.50
2018-07-28T08:39:59.848Z,87.90
2018-07-28T08:42:28.348Z,87.60
2018-07-28T08:44:56.789Z,87.30
2018-07-28T08:47:25.156Z,87.00
2018-07-28T08:49:53.548Z,86.70
2018-07-28T08:52:21.926Z,87.00
2018-07-28T08:54:50.368Z,86.30
2018-07-28T08:57:18.774Z,86.60
2018-07-28T08:59:47.235Z,85.80
2018-07-28T09:02:15.608Z,85.90
2018-07-28T09:04:44.012Z,85.10
2018-07-28T09:07:12.410Z,83.30
2018-07-28T09:09:40.814Z,82.30
2018-07-28T09:12:09.553Z,82.60
2018-07-28T09:14:38.050Z,82.20
2018-07-28T09:17:06.530Z,82.30
2018-07-28T09:19:34.930Z,81.50
2018-07-28T09:22:03.314Z,80.50
2018-07-28T09:24:31.684Z,80.40
2018-07-28T09:27:00.102Z,80.10
2018-07-28T09:29:28.512Z,78.40
2018-07-28T09:31:57.516Z,77.70
2018-07-28T09:34:26.132Z,78.70
2018-07-28T09:36:54.564Z,77.80
2018-07-28T09:39:23.055Z,77.30
2018-07-28T09:41:51.558Z,77.10
2018-07-28T09:44:20.020Z,76.70
2018-07-28T09:46:49.220Z,77.00
2018-07-28T09:49:18.312Z,75.00
2018-07-28T09:51:46.752Z,72.60
2018-07-28T09:54:15.917Z,73.50
2018-07-28T09:56:44.446Z,73.40
2018-07-28T09:59:12.950Z,71.70
2018-07-28T10:01:41.434Z,71.50
2018-07-28T10:04:09.917Z,68.60
2018-07-28T10:06:38.432Z,67.60
2018-07-28T10:09:06.890Z,67.80
2018-07-28T10:11:35.340Z,68.40
2018-07-28T10:14:03.736Z,69.30
2018-07-28T10:16:32.119Z,66.50
2018-07-28T10:19:00.533Z,66.40
2018-07-28T10:21:28.934Z,63.60
2018-07-28T10:23:57.300Z,61.80
2018-07-28T10:26:26.524Z,62.70
2018-07-28T10:28:54.882Z,62.80
2018-07-28T10:31:23.345Z,60.00
2018-07-28T10:33:51.831Z,59.60
2018-07-28T10:36:20.660Z,59.60
2018-07-28T10:38:49.475Z,58.10
2018-07-28T10:41:18.003Z,59.00
2018-07-28T10:43:47.428Z,60.90
2018-07-28T10:46:16.576Z,61.50
2018-07-28T10:48:44.937Z,61.50
2018-07-28T10:51:13.365Z,63.10
2018-07-28T10:53:41.830Z,63.50
2018-07-28T10:56:10.298Z,63.80
2018-07-28T10:58:39.168Z,63.40
2018-07-28T11:01:07.560Z,62.60
2018-07-28T11:03:35.940Z,61.10
2018-07-28T11:06:04.352Z,61.10
2018-07-28T11:08:33.550Z,60.10
2018-07-28T11:11:01.910Z,60.00
2018-07-28T11:13:30.348Z,61.10
2018-07-28T11:15:58.842Z,59.00
2018-07-28T11:18:27.258Z,57.80
2018-07-28T11:20:56.647Z,58.00
2018-07-28T11:23:25.049Z,57.10
2018-07-28T11:25:53.494Z,56.00
2018-07-28T11:28:21.903Z,59.20
2018-07-28T11:30:51.082Z,66.40
2018-07-28T11:39:54.899Z,74.20
2018-07-28T11:42:35.056Z,74.20
2018-07-28T11:45:03.453Z,80.00
2018-07-28T11:47:31.876Z,84.50
2018-07-28T11:50:01.236Z,87.20
2018-07-28T11:52:29.711Z,87.00
2018-07-28T11:54:58.490Z,87.20
2018-07-28T11:57:26.924Z,87.90
2018-07-28T11:59:55.336Z,87.70
2018-07-28T12:02:24.521Z,88.50
2018-07-28T12:04:53.803Z,89.90
2018-07-28T12:07:22.239Z,89.50
2018-07-28T12:09:50.615Z,87.50
2018-07-28T12:12:18.995Z,89.70
2018-07-28T12:14:47.367Z,90.90
2018-07-28T12:17:15.783Z,91.80
2018-07-28T12:19:44.122Z,93.00
2018-07-28T12:22:12.556Z,94.20
2018-07-28T12:24:41.093Z,94.40
2018-07-28T12:27:09.542Z,94.50
2018-07-28T12:29:38.838Z,98.20
2018-07-28T12:32:07.365Z,98.10
2018-07-28T12:34:35.945Z,99.00
2018-07-28T12:37:05.091Z,99.90
2018-07-28T12:39:33.588Z,99.90
2018-07-28T12:42:02.747Z,99.90
2018-07-28T12:44:31.173Z,99.90
2018-07-28T12:47:00.356Z,99.90
2018-07-28T12:49:28.822Z,99.90
2018-07-28T12:51:57.172Z,99.90
2018-07-28T12:54:25.628Z,99.90
2018-07-28T12:56:54.825Z,99.90
2018-07-28T12:59:23.946Z,99.90
2018-07-28T13:01:52.422Z,99.90
2018-07-28T13:04:20.880Z,99.90
2018-07-28T13:06:50.188Z,99.90
2018-07-28T13:09:19.322Z,99.90
2018-07-28T13:11:47.744Z,99.90
2018-07-28T13:14:16.918Z,99.90
2018-07-28T13:16:45.360Z,99.90
2018-07-28T13:19:13.782Z,99.90
2018-07-28T13:21:42.224Z,99.90
2018-07-28T13:24:10.661Z,99.90
2018-07-28T13:26:39.156Z,99.90
2018-07-28T13:29:07.644Z,99.90
2018-07-28T13:31:37.067Z,99.90
2018-07-28T13:34:05.483Z,99.90
2018-07-28T13:36:33.975Z,99.90
2018-07-28T13:39:02.382Z,97.90
2018-07-28T13:41:31.574Z,93.80
2018-07-28T13:44:00.733Z,93.70
2018-07-28T13:46:29.120Z,93.60
2018-07-28T13:48:57.531Z,92.70
2018-07-28T13:51:26.726Z,90.70
2018-07-28T13:53:55.137Z,90.70
2018-07-28T13:56:23.540Z,91.60
2018-07-28T13:58:51.938Z,90.20
2018-07-28T14:01:20.338Z,90.70
2018-07-28T14:03:48.722Z,90.80
2018-07-28T14:06:17.988Z,91.10
2018-07-28T14:08:46.347Z,91.70
2018-07-28T14:11:14.773Z,91.90
2018-07-28T14:13:43.224Z,91.50
2018-07-28T14:16:11.657Z,92.20
2018-07-28T14:18:40.891Z,93.20
2018-07-28T14:21:09.738Z,93.20
2018-07-28T14:23:39.717Z,94.70
2018-07-28T14:26:08.122Z,94.70
2018-07-28T14:28:36.540Z,95.70
2018-07-28T14:31:04.927Z,96.80
2018-07-28T14:33:34.139Z,96.70
2018-07-28T14:36:02.559Z,96.30
2018-07-28T14:38:30.953Z,95.70
2018-07-28T14:41:00.113Z,96.30
2018-07-28T14:43:28.501Z,96.30
2018-07-28T14:45:57.194Z,96.90
2018-07-28T14:48:25.611Z,95.10
2018-07-28T14:50:54.036Z,96.20
2018-07-28T14:53:22.425Z,95.30
2018-07-28T14:55:51.111Z,95.90
2018-07-28T14:58:19.777Z,96.20
2018-07-28T15:00:48.221Z,95.70
2018-07-28T15:03:17.409Z,93.10
2018-07-28T15:05:45.788Z,93.10
2018-07-28T15:08:14.190Z,93.30
2018-07-28T15:10:42.610Z,93.60
2018-07-28T15:13:11.104Z,91.10
2018-07-28T15:15:39.550Z,91.30
2018-07-28T15:18:08.078Z,91.50
2018-07-28T15:20:36.609Z,92.30
2018-07-28T15:23:05.031Z,92.70
2018-07-28T15:25:34.317Z,92.50
2018-07-28T15:28:02.741Z,92.50
2018-07-28T15:30:31.906Z,92.20
2018-07-28T15:33:00.318Z,92.20
2018-07-28T15:35:29.519Z,92.10
2018-07-28T15:37:58.691Z,92.70
2018-07-28T15:40:27.051Z,92.70
2018-07-28T15:42:55.493Z,93.00
2018-07-28T15:45:23.872Z,92.60
2018-07-28T15:47:52.308Z,92.80
2018-07-28T15:50:20.673Z,93.40
2018-07-28T15:52:49.245Z,93.10
2018-07-28T15:55:18.145Z,93.40
2018-07-28T15:57:46.542Z,93.40
2018-07-28T16:00:15.098Z,93.60
2018-07-28T16:02:43.446Z,93.70
2018-07-28T16:05:11.926Z,93.40
2018-07-28T16:07:40.319Z,93.70
2018-07-28T16:10:08.697Z,93.30
2018-07-28T16:12:37.103Z,93.60
2018-07-28T16:15:05.947Z,93.50
2018-07-28T16:17:34.336Z,92.60
2018-07-28T16:20:02.885Z,92.60
2018-07-28T16:22:32.554Z,92.70
2018-07-28T16:25:00.971Z,93.10
2018-07-28T16:27:29.317Z,92.80
2018-07-28T16:29:57.859Z,92.10
2018-07-28T16:32:26.995Z,91.10
2018-07-28T16:34:55.428Z,91.00
2018-07-28T16:37:24.578Z,88.70
2018-07-28T16:39:53.387Z,88.60
2018-07-28T16:42:21.871Z,88.30
2018-07-28T16:44:50.265Z,89.00
2018-07-28T16:47:18.721Z,90.00
2018-07-28T16:49:47.107Z,90.30
2018-07-28T16:52:15.722Z,90.70
2018-07-28T16:54:44.073Z,90.60
2018-07-28T16:57:12.479Z,90.80
2018-07-28T16:59:40.832Z,91.50
2018-07-28T17:02:09.205Z,91.80
2018-07-28T17:04:37.661Z,91.30
2018-07-28T17:07:06.080Z,90.90
2018-07-28T17:09:34.443Z,89.80
2018-07-28T17:12:02.850Z,90.20
2018-07-28T17:14:31.253Z,90.10
2018-07-28T17:16:59.635Z,88.90
2018-07-28T17:19:28.137Z,90.00
2018-07-28T17:21:56.557Z,90.10
2018-07-28T17:24:24.899Z,90.70
2018-07-28T17:26:53.327Z,91.20
2018-07-28T17:29:22.477Z,91.60
2018-07-28T17:31:51.408Z,91.60
2018-07-28T17:34:19.808Z,91.70
2018-07-28T17:36:48.959Z,91.20
2018-07-28T17:39:17.365Z,91.20
2018-07-28T17:41:45.726Z,91.10
2018-07-28T17:44:14.208Z,91.30
2018-07-28T17:46:42.886Z,92.30
2018-07-28T17:49:11.250Z,92.30
2018-07-28T17:51:39.641Z,92.60
2018-07-28T17:54:08.014Z,93.10
2018-07-28T17:56:36.377Z,93.80
2018-07-28T17:59:04.765Z,93.60
2018-07-28T18:01:33.141Z,93.60
2018-07-28T18:04:01.515Z,93.20
2018-07-28T18:06:29.901Z,93.10
2018-07-28T18:08:58.255Z,93.20
2018-07-28T18:11:27.447Z,94.10
2018-07-28T18:13:56.592Z,94.50
2018-07-28T18:16:24.968Z,94.50
2018-07-28T18:18:53.485Z,95.10
2018-07-28T18:21:22.612Z,96.30
2018-07-28T18:23:51.008Z,96.30
2018-07-28T18:26:19.349Z,97.80
2018-07-28T18:28:48.526Z,99.40
2018-07-28T18:31:16.926Z,99.30
2018-07-28T18:33:45.350Z,99.80
2018-07-28T18:36:13.855Z,99.90
2018-07-28T18:38:42.250Z,99.90
2018-07-28T18:41:11.139Z,99.90
2018-07-28T18:43:39.580Z,99.90
2018-07-28T18:46:08.082Z,99.90
2018-07-28T18:48:36.451Z,99.90
2018-07-28T18:51:04.910Z,94.80
2018-07-28T18:53:33.732Z,95.10
2018-07-28T18:56:02.311Z,95.80
2018-07-28T18:58:30.695Z,97.70
2018-07-28T19:00:59.040Z,99.90
2018-07-28T19:03:27.524Z,99.90
2018-07-28T19:05:55.825Z,99.90
2018-07-28T19:08:24.635Z,99.90
2018-07-28T19:10:52.993Z,99.90
2018-07-28T19:13:21.555Z,99.90
2018-07-28T19:15:49.928Z,99.90
2018-07-28T19:18:18.447Z,99.90
2018-07-28T19:20:46.948Z,99.90
2018-07-28T19:23:15.303Z,99.90
2018-07-28T19:25:43.659Z,99.90
2018-07-28T19:28:12.169Z,99.90
2018-07-28T19:30:40.568Z,99.90
2018-07-28T19:33:08.928Z,99.90
2018-07-28T19:35:37.319Z,99.90
2018-07-28T19:38:05.695Z,99.90
2018-07-28T19:40:34.078Z,99.90
2018-07-28T19:43:02.452Z,99.90
2018-07-28T19:45:30.839Z,99.90
2018-07-28T19:47:59.228Z,99.90
2018-07-28T19:50:27.809Z,99.90
2018-07-28T19:52:57.090Z,99.90
2018-07-28T19:55:25.482Z,99.90
2018-07-28T19:57:53.974Z,99.90
2018-07-28T20:00:22.354Z,99.90
2018-07-28T20:02:51.108Z,99.90
2018-07-28T20:05:19.513Z,99.90
2018-07-28T20:07:48.000Z,99.90
2018-07-28T20:10:16.360Z,99.90
2018-07-28T20:12:45.492Z,99.90
2018-07-28T20:15:13.860Z,99.90
2018-07-28T20:17:42.334Z,99.90
2018-07-28T20:20:10.844Z,99.90
2018-07-28T20:22:39.972Z,99.90
2018-07-28T20:25:08.390Z,99.90
2018-07-28T20:27:36.759Z,99.90
2018-07-28T20:30:05.130Z,99.90
2018-07-28T20:32:33.650Z,99.90
2018-07-28T20:35:02.150Z,99.90
2018-07-28T20:37:31.272Z,99.90
2018-07-28T20:39:59.666Z,99.90
2018-07-28T20:42:28.133Z,99.90
2018-07-28T20:44:56.526Z,99.90
2018-07-28T20:47:24.989Z,99.90
2018-07-28T20:49:53.412Z,99.90
2018-07-28T20:52:21.963Z,99.90
2018-07-28T20:54:50.312Z,99.90
2018-07-28T20:57:19.753Z,99.90
2018-07-28T20:59:48.148Z,99.90
2018-07-28T21:02:16.898Z,99.90
2018-07-28T21:04:46.022Z,99.90
2018-07-28T21:07:14.513Z,99.90
2018-07-28T21:09:43.648Z,99.90
2018-07-28T21:12:13.152Z,99.90
2018-07-28T21:14:42.322Z,99.90
2018-07-28T21:17:10.677Z,99.90
2018-07-28T21:19:39.252Z,99.90
2018-07-28T21:22:07.631Z,99.90
2018-07-28T21:24:36.070Z,99.90
2018-07-28T21:27:04.425Z,99.90
2018-07-28T21:29:32.972Z,99.90
2018-07-28T21:32:01.406Z,99.90
2018-07-28T21:34:29.809Z,99.90
2018-07-28T21:36:58.948Z,99.90
2018-07-28T21:39:27.576Z,99.90
2018-07-28T21:41:55.954Z,99.90
2018-07-28T21:44:25.144Z,99.90
2018-07-28T21:46:53.557Z,99.90
2018-07-28T21:49:22.744Z,99.90
2018-07-28T21:51:52.006Z,99.90
2018-07-28T21:54:20.628Z,99.90
2018-07-28T21:56:49.942Z,99.90
2018-07-28T21:59:18.366Z,99.90
2018-07-28T22:01:46.752Z,99.90
2018-07-28T22:04:15.173Z,99.90
2018-07-28T22:06:44.399Z,99.90
2018-07-28T22:09:12.821Z,99.90
2018-07-28T22:11:41.370Z,99.90
2018-07-28T22:14:09.924Z,99.90
2018-07-28T22:16:38.298Z,99.90
2018-07-28T22:19:07.468Z,99.90
2018-07-28T22:21:35.946Z,99.90
2018-07-28T22:24:04.560Z,99.90
2018-07-28T22:26:33.702Z,99.90
2018-07-28T22:29:02.142Z,99.90
2018-07-28T22:31:30.504Z,99.90
2018-07-28T22:33:59.938Z,99.90
2018-07-28T22:36:28.372Z,99.90
2018-07-28T22:38:56.750Z,99.90
2018-07-28T22:41:25.158Z,99.90
2018-07-28T22:43:54.332Z,99.90
2018-07-28T22:46:22.832Z,99.90
2018-07-28T22:48:51.970Z,99.90
2018-07-28T22:51:20.458Z,99.90
2018-07-28T22:53:48.896Z,99.90
2018-07-28T22:56:17.301Z,99.90
2018-07-28T22:58:45.781Z,99.90
2018-07-28T23:01:14.460Z,99.90
2018-07-28T23:03:42.840Z,99.90
2018-07-28T23:06:11.452Z,99.90
2018-07-28T23:08:40.140Z,99.90
2018-07-28T23:11:09.234Z,99.90
2018-07-28T23:13:37.637Z,99.90
2018-07-28T23:16:06.033Z,99.90
2018-07-28T23:18:34.416Z,99.90
2018-07-28T23:21:02.808Z,99.90
2018-07-28T23:23:31.942Z,99.90
2018-07-28T23:26:00.326Z,99.90
2018-07-28T23:28:28.709Z,99.90
2018-07-28T23:30:57.073Z,99.90
2018-07-28T23:33:25.441Z,99.90
2018-07-28T23:35:53.966Z,99.90
2018-07-28T23:38:22.359Z,99.90
2018-07-28T23:40:50.740Z,99.90
2018-07-28T23:43:19.156Z,99.90
2018-07-28T23:45:47.538Z,99.90
2018-07-28T23:48:15.944Z,99.90
2018-07-28T23:50:44.376Z,99.90
2018-07-28T23:53:12.758Z,99.90
2018-07-28T23:55:41.399Z,99.90
2018-07-28T23:58:09.810Z,99.90
